createdAt,value
2022-10-01T00:00:51.188Z,97.80
2022-10-01T00:03:18.832Z,97.50
2022-10-01T00:05:45.552Z,97.60
2022-10-01T00:08:14.869Z,97.50
2022-10-01T00:10:43.335Z,97.80
2022-10-01T00:13:13.000Z,97.60
2022-10-01T00:15:41.048Z,97.70
2022-10-01T00:18:08.909Z,97.70
2022-10-01T00:20:35.551Z,97.70
2022-10-01T00:23:02.134Z,97.60
2022-10-01T00:25:28.792Z,97.50
2022-10-01T00:27:55.676Z,97.50
2022-10-01T00:30:22.308Z,97.40
2022-10-01T00:32:48.950Z,97.40
2022-10-01T00:35:15.583Z,97.40
2022-10-01T00:37:42.650Z,97.50
2022-10-01T00:40:09.833Z,97.60
2022-10-01T00:42:36.524Z,97.30
2022-10-01T00:45:03.417Z,97.40
2022-10-01T00:47:36.702Z,97.40
2022-10-01T00:50:33.027Z,97.60
2022-10-01T00:53:11.998Z,97.50
2022-10-01T00:55:42.757Z,97.60
2022-10-01T00:58:11.478Z,97.70
2022-10-01T01:00:39.263Z,97.60
2022-10-01T01:03:06.246Z,97.70
2022-10-01T01:05:32.865Z,97.70
2022-10-01T01:08:01.535Z,97.60
2022-10-01T01:10:42.699Z,97.70
2022-10-01T01:13:09.303Z,97.60
2022-10-01T01:15:49.866Z,97.70
2022-10-01T01:18:33.728Z,97.70
2022-10-01T01:21:08.243Z,97.60
2022-10-01T01:23:47.143Z,97.70
2022-10-01T01:26:31.117Z,97.70
2022-10-01T01:29:07.147Z,97.70
2022-10-01T01:31:41.347Z,97.50
2022-10-01T01:34:12.369Z,97.70
2022-10-01T01:36:45.042Z,97.70
2022-10-01T01:39:15.185Z,97.80
2022-10-01T01:41:51.082Z,97.70
2022-10-01T01:44:25.787Z,97.50
2022-10-01T01:46:56.472Z,97.60
2022-10-01T01:49:23.728Z,97.40
2022-10-01T01:52:15.799Z,97.50
2022-10-01T01:54:48.056Z,97.50
2022-10-01T01:57:16.964Z,97.50
2022-10-01T01:59:43.762Z,97.60
2022-10-01T02:02:17.369Z,97.50
2022-10-01T02:04:46.802Z,97.60
2022-10-01T02:07:28.419Z,97.50
2022-10-01T02:10:31.900Z,97.40
2022-10-01T02:13:08.247Z,97.60
2022-10-01T02:15:59.765Z,97.20
2022-10-01T02:18:28.184Z,97.20
2022-10-01T02:21:05.757Z,97.10
2022-10-01T02:23:40.816Z,97.50
2022-10-01T02:26:16.190Z,97.40
2022-10-01T02:28:44.587Z,97.20
2022-10-01T02:31:13.489Z,97.20
2022-10-01T02:33:42.242Z,97.30
2022-10-01T02:36:11.103Z,97.30
2022-10-01T02:38:41.249Z,97.50
2022-10-01T02:41:11.598Z,97.90
2022-10-01T02:43:51.704Z,97.30
2022-10-01T02:46:30.643Z,97.20
2022-10-01T02:48:58.091Z,97.20
2022-10-01T02:51:43.419Z,97.20
2022-10-01T02:54:35.548Z,97.20
2022-10-01T02:57:20.679Z,97.10
2022-10-01T02:59:47.590Z,97.10
2022-10-01T03:02:14.434Z,97.20
2022-10-01T03:04:41.174Z,97.30
2022-10-01T03:07:07.918Z,97.20
2022-10-01T03:09:36.724Z,97.30
2022-10-01T03:12:03.520Z,97.10
2022-10-01T03:14:30.182Z,97.20
2022-10-01T03:16:56.788Z,97.00
2022-10-01T03:19:23.478Z,97.10
2022-10-01T03:21:50.145Z,97.20
2022-10-01T03:24:16.875Z,97.20
2022-10-01T03:26:43.872Z,97.30
2022-10-01T03:29:11.227Z,97.20
2022-10-01T03:31:38.416Z,97.20
2022-10-01T03:34:05.292Z,97.10
2022-10-01T03:36:31.954Z,97.00
2022-10-01T03:38:58.690Z,96.90
2022-10-01T03:41:25.336Z,96.80
2022-10-01T03:43:51.993Z,96.90
2022-10-01T03:46:18.699Z,96.90
2022-10-01T03:48:45.308Z,96.90
2022-10-01T03:51:14.677Z,96.90
2022-10-01T03:53:44.469Z,97.10
2022-10-01T03:56:11.118Z,97.20
2022-10-01T03:58:37.728Z,97.30
2022-10-01T04:01:04.498Z,97.40
2022-10-01T04:03:31.395Z,97.60
2022-10-01T04:05:58.014Z,97.60
2022-10-01T04:08:24.759Z,98.00
2022-10-01T04:10:51.620Z,98.30
2022-10-01T04:13:18.225Z,98.70
2022-10-01T04:15:45.032Z,98.80
2022-10-01T04:18:12.170Z,99.00
2022-10-01T04:20:39.066Z,99.70
2022-10-01T04:23:05.819Z,99.70
2022-10-01T04:25:32.576Z,99.90
2022-10-01T04:28:00.462Z,99.90
2022-10-01T04:30:31.524Z,99.90
2022-10-01T04:32:58.595Z,99.90
2022-10-01T04:35:26.287Z,99.90
2022-10-01T04:38:03.402Z,99.90
2022-10-01T04:40:32.236Z,99.90
2022-10-01T04:42:58.843Z,99.90
2022-10-01T04:45:25.475Z,99.90
2022-10-01T04:47:55.128Z,99.90
2022-10-01T04:50:23.639Z,99.90
2022-10-01T04:52:51.282Z,99.90
2022-10-01T04:55:19.264Z,99.90
2022-10-01T04:57:46.447Z,99.90
2022-10-01T05:00:17.116Z,99.90
2022-10-01T05:02:45.922Z,99.90
2022-10-01T05:05:13.003Z,99.90
2022-10-01T05:07:40.598Z,99.90
2022-10-01T05:10:16.563Z,99.90
2022-10-01T05:12:43.574Z,99.90
2022-10-01T05:15:11.036Z,99.90
2022-10-01T05:17:37.684Z,99.90
2022-10-01T05:20:06.517Z,99.90
2022-10-01T05:22:33.743Z,99.90
2022-10-01T05:25:00.583Z,99.90
2022-10-01T05:27:27.896Z,99.90
2022-10-01T05:29:54.622Z,99.90
2022-10-01T05:32:21.219Z,99.90
2022-10-01T05:34:51.263Z,99.90
2022-10-01T05:37:20.020Z,99.90
2022-10-01T05:39:46.784Z,99.90
2022-10-01T05:42:13.376Z,99.90
2022-10-01T05:44:45.883Z,99.90
2022-10-01T05:47:16.651Z,99.90
2022-10-01T05:49:44.406Z,99.90
2022-10-01T05:52:11.897Z,99.90
2022-10-01T05:54:38.649Z,99.90
2022-10-01T05:57:06.454Z,99.90
2022-10-01T05:59:33.262Z,99.90
2022-10-01T06:02:00.159Z,99.90
2022-10-01T06:04:26.891Z,99.90
2022-10-01T06:06:54.063Z,99.90
2022-10-01T06:09:20.709Z,99.90
2022-10-01T06:11:48.897Z,99.90
2022-10-01T06:14:16.152Z,99.90
2022-10-01T06:16:42.873Z,99.90
2022-10-01T06:19:09.658Z,99.90
2022-10-01T06:21:36.772Z,99.90
2022-10-01T06:24:03.996Z,99.90
2022-10-01T06:26:31.197Z,99.90
2022-10-01T06:28:57.850Z,99.90
2022-10-01T06:31:25.105Z,99.90
2022-10-01T06:33:51.910Z,99.90
2022-10-01T06:36:18.655Z,99.90
2022-10-01T06:38:48.655Z,99.90
2022-10-01T06:41:15.298Z,99.90
2022-10-01T06:43:42.096Z,99.90
2022-10-01T06:46:08.980Z,99.90
2022-10-01T06:48:36.629Z,99.90
2022-10-01T06:51:04.100Z,99.90
2022-10-01T06:53:31.779Z,99.90
2022-10-01T06:56:04.490Z,99.90
2022-10-01T06:58:31.127Z,99.90
2022-10-01T07:01:00.135Z,99.90
2022-10-01T07:03:27.471Z,99.90
2022-10-01T07:05:56.486Z,99.90
2022-10-01T07:08:23.943Z,99.90
2022-10-01T07:10:50.641Z,99.90
2022-10-01T07:13:20.219Z,99.90
2022-10-01T07:15:47.243Z,99.90
2022-10-01T07:18:14.269Z,99.90
2022-10-01T07:20:41.531Z,99.90
2022-10-01T07:23:11.526Z,99.90
2022-10-01T07:25:39.650Z,99.90
2022-10-01T07:28:08.102Z,99.90
2022-10-01T07:30:35.386Z,99.90
2022-10-01T07:33:01.991Z,99.90
2022-10-01T07:35:29.633Z,99.90
2022-10-01T07:37:56.257Z,99.90
2022-10-01T07:40:22.867Z,99.90
2022-10-01T07:42:54.913Z,99.90
2022-10-01T07:45:23.106Z,99.90
2022-10-01T07:51:55.681Z,99.90
2022-10-01T07:54:22.870Z,99.90
2022-10-01T07:56:52.949Z,99.90
2022-10-01T07:59:19.809Z,99.90
2022-10-01T08:01:51.677Z,99.90
2022-10-01T08:04:38.108Z,99.90
2022-10-01T08:07:05.616Z,99.90
2022-10-01T08:09:32.550Z,99.90
2022-10-01T08:11:59.186Z,99.90
2022-10-01T08:14:26.546Z,99.90
2022-10-01T08:16:55.727Z,99.90
2022-10-01T08:19:22.501Z,99.90
2022-10-01T08:21:49.138Z,99.90
2022-10-01T08:24:15.778Z,99.90
2022-10-01T08:26:42.424Z,99.90
2022-10-01T08:29:11.580Z,99.90
2022-10-01T08:31:41.123Z,99.90
2022-10-01T08:34:07.737Z,99.90
2022-10-01T08:36:35.709Z,99.90
2022-10-01T08:39:02.687Z,99.90
2022-10-01T08:41:35.552Z,99.90
2022-10-01T08:44:05.388Z,99.90
2022-10-01T08:46:35.746Z,99.90
2022-10-01T08:49:25.287Z,99.90
2022-10-01T08:52:01.109Z,99.90
2022-10-01T08:54:36.496Z,99.90
2022-10-01T08:57:06.435Z,99.90
2022-10-01T08:59:47.124Z,99.90
2022-10-01T09:02:24.640Z,99.90
2022-10-01T09:05:01.270Z,99.90
2022-10-01T09:07:37.046Z,99.90
2022-10-01T09:10:33.845Z,99.90
2022-10-01T09:13:22.324Z,99.90
2022-10-01T09:15:56.403Z,99.90
2022-10-01T09:18:38.054Z,99.90
2022-10-01T09:21:22.889Z,99.90
2022-10-01T09:24:15.644Z,99.90
2022-10-01T09:26:48.731Z,99.90
2022-10-01T09:29:22.974Z,99.90
2022-10-01T09:31:52.118Z,99.90
2022-10-01T09:34:32.811Z,99.90
2022-10-01T09:37:15.264Z,99.90
2022-10-01T09:39:51.185Z,99.90
2022-10-01T09:42:18.385Z,99.90
2022-10-01T09:44:47.172Z,99.90
2022-10-01T09:47:18.092Z,99.90
2022-10-01T09:49:46.134Z,99.90
2022-10-01T09:52:33.497Z,99.90
2022-10-01T09:55:18.341Z,99.90
2022-10-01T09:57:55.710Z,99.90
2022-10-01T10:00:25.169Z,99.90
2022-10-01T10:02:56.747Z,99.90
2022-10-01T10:05:26.654Z,99.90
2022-10-01T10:08:00.064Z,99.90
2022-10-01T10:10:30.473Z,99.90
2022-10-01T10:13:01.357Z,99.90
2022-10-01T10:15:31.922Z,99.90
2022-10-01T10:18:33.937Z,99.90
2022-10-01T10:21:04.382Z,99.90
2022-10-01T10:23:31.337Z,99.90
2022-10-01T10:26:03.236Z,99.90
2022-10-01T10:28:45.997Z,99.90
2022-10-01T10:31:22.510Z,99.90
2022-10-01T10:34:04.880Z,99.90
2022-10-01T10:36:35.779Z,99.90
2022-10-01T10:39:06.095Z,99.90
2022-10-01T10:41:34.470Z,99.90
2022-10-01T10:44:04.645Z,99.90
2022-10-01T10:46:34.901Z,99.90
2022-10-01T10:49:10.461Z,99.90
2022-10-01T10:51:53.826Z,99.90
2022-10-01T10:54:24.814Z,99.90
2022-10-01T10:57:02.152Z,99.90
2022-10-01T10:59:31.705Z,99.90
2022-10-01T11:02:01.099Z,99.90
2022-10-01T11:04:42.830Z,99.90
2022-10-01T11:07:11.404Z,99.90
2022-10-01T11:10:16.146Z,99.90
2022-10-01T11:13:08.163Z,99.90
2022-10-01T11:15:34.809Z,99.90
2022-10-01T11:18:01.481Z,99.90
2022-10-01T11:20:50.555Z,99.90
2022-10-01T11:23:51.690Z,99.90
2022-10-01T11:26:28.590Z,99.90
2022-10-01T11:29:04.885Z,99.90
2022-10-01T11:31:40.704Z,99.90
2022-10-01T11:34:37.813Z,99.90
2022-10-01T11:37:25.949Z,99.90
2022-10-01T11:39:56.150Z,99.90
2022-10-01T11:42:34.616Z,99.90
2022-10-01T11:45:25.324Z,99.90
2022-10-01T11:48:05.191Z,99.90
2022-10-01T11:50:39.195Z,99.90
2022-10-01T11:53:16.623Z,99.90
2022-10-01T11:56:10.670Z,99.90
2022-10-01T11:58:54.604Z,99.90
2022-10-01T12:01:24.365Z,99.90
2022-10-01T12:03:53.710Z,99.90
2022-10-01T12:06:35.974Z,99.90
2022-10-01T12:09:26.097Z,99.90
2022-10-01T12:12:08.538Z,99.90
2022-10-01T12:14:44.962Z,99.90
2022-10-01T12:17:25.589Z,99.90
2022-10-01T12:19:54.875Z,99.90
2022-10-01T12:22:27.229Z,99.90
2022-10-01T12:24:54.350Z,99.90
2022-10-01T12:27:44.368Z,99.90
2022-10-01T12:30:16.413Z,99.90
2022-10-01T12:33:07.517Z,99.90
2022-10-01T12:35:52.701Z,99.90
2022-10-01T12:38:34.562Z,99.90
2022-10-01T12:41:03.969Z,99.90
2022-10-01T12:43:39.509Z,99.90
2022-10-01T12:46:31.449Z,99.90
2022-10-01T12:49:07.710Z,99.90
2022-10-01T12:51:44.894Z,99.90
2022-10-01T12:54:45.821Z,99.90
2022-10-01T12:57:38.007Z,99.90
2022-10-01T13:00:19.618Z,99.90
2022-10-01T13:03:10.202Z,99.90
2022-10-01T13:06:10.756Z,99.90
2022-10-01T13:08:43.895Z,99.90
2022-10-01T13:11:43.898Z,99.90
2022-10-01T13:14:14.291Z,99.90
2022-10-01T13:16:59.699Z,99.90
2022-10-01T13:19:36.075Z,99.90
2022-10-01T13:22:24.196Z,99.90
2022-10-01T13:25:00.779Z,99.90
2022-10-01T13:27:47.014Z,99.90
2022-10-01T13:30:22.440Z,99.90
2022-10-01T13:32:51.228Z,99.90
2022-10-01T13:35:32.850Z,99.90
2022-10-01T13:38:13.537Z,99.90
2022-10-01T13:40:40.564Z,99.90
2022-10-01T13:43:22.565Z,99.90
2022-10-01T13:45:51.942Z,99.90
2022-10-01T13:48:23.401Z,99.90
2022-10-01T13:51:03.465Z,99.90
2022-10-01T13:53:55.791Z,99.90
2022-10-01T13:56:34.993Z,99.90
2022-10-01T13:59:01.952Z,99.90
2022-10-01T14:01:38.116Z,99.90
2022-10-01T14:04:19.841Z,99.90
2022-10-01T14:06:58.750Z,99.90
2022-10-01T14:09:46.165Z,99.90
2022-10-01T14:12:37.236Z,99.90
2022-10-01T14:15:37.417Z,99.90
2022-10-01T14:18:14.366Z,99.90
2022-10-01T14:21:15.574Z,99.90
2022-10-01T14:24:14.690Z,99.90
2022-10-01T14:27:12.265Z,99.10
2022-10-01T14:30:07.009Z,95.60
2022-10-01T14:33:07.672Z,95.10
2022-10-01T14:35:52.784Z,98.10
2022-10-01T14:38:21.707Z,99.90
2022-10-01T14:40:50.452Z,99.90
2022-10-01T14:43:19.183Z,99.90
2022-10-01T14:45:59.515Z,99.90
2022-10-01T14:48:29.503Z,99.90
2022-10-01T14:50:59.101Z,99.90
2022-10-01T14:53:28.438Z,99.90
2022-10-01T14:55:58.435Z,99.90
2022-10-01T14:58:32.535Z,99.90
2022-10-01T15:01:00.479Z,99.90
2022-10-01T15:03:27.340Z,99.90
2022-10-01T15:06:11.179Z,99.90
2022-10-01T15:08:43.514Z,99.90
2022-10-01T15:11:25.742Z,99.90
2022-10-01T15:13:55.460Z,99.90
2022-10-01T15:16:27.424Z,99.90
2022-10-01T15:19:02.261Z,99.90
2022-10-01T15:21:38.186Z,99.90
2022-10-01T15:24:20.303Z,99.90
2022-10-01T15:26:48.611Z,99.90
2022-10-01T15:29:16.920Z,99.90
2022-10-01T15:31:49.452Z,99.90
2022-10-01T15:34:19.120Z,99.90
2022-10-01T15:36:48.056Z,99.90
2022-10-01T15:39:37.337Z,99.90
2022-10-01T15:42:28.167Z,99.90
2022-10-01T15:45:07.032Z,99.90
2022-10-01T15:47:35.817Z,99.90
2022-10-01T15:50:23.584Z,99.90
2022-10-01T15:53:03.286Z,99.90
2022-10-01T15:55:43.144Z,99.90
2022-10-01T15:58:22.820Z,99.90
2022-10-01T16:00:57.549Z,99.90
2022-10-01T16:03:31.074Z,99.90
2022-10-01T16:06:01.222Z,99.90
2022-10-01T16:08:36.654Z,99.90
2022-10-01T16:11:21.555Z,99.90
2022-10-01T16:13:50.737Z,99.90
2022-10-01T16:16:23.929Z,99.90
2022-10-01T16:19:21.569Z,99.90
2022-10-01T16:22:27.791Z,99.90
2022-10-01T16:24:57.669Z,99.90
2022-10-01T16:27:34.377Z,99.90
2022-10-01T16:30:09.057Z,99.90
2022-10-01T16:32:35.853Z,99.90
2022-10-01T16:35:15.902Z,99.90
2022-10-01T16:37:43.299Z,99.90
2022-10-01T16:40:15.298Z,99.90
2022-10-01T16:42:44.681Z,99.90
2022-10-01T16:45:17.755Z,99.90
2022-10-01T16:47:45.425Z,99.90
2022-10-01T16:50:14.267Z,99.90
2022-10-01T16:52:40.968Z,99.90
2022-10-01T16:55:31.443Z,99.90
2022-10-01T16:57:58.056Z,99.90
2022-10-01T17:00:26.587Z,99.90
2022-10-01T17:02:54.101Z,99.90
2022-10-01T17:05:28.239Z,99.90
2022-10-01T17:08:00.808Z,99.90
2022-10-01T17:10:30.978Z,99.90
2022-10-01T17:12:59.456Z,99.90
2022-10-01T17:15:27.975Z,99.90
2022-10-01T17:17:56.899Z,99.90
2022-10-01T17:20:26.393Z,99.90
2022-10-01T17:22:52.999Z,99.90
2022-10-01T17:25:21.843Z,99.90
2022-10-01T17:27:48.705Z,99.90
2022-10-01T17:30:16.003Z,99.90
2022-10-01T17:32:43.377Z,99.90
2022-10-01T17:35:12.082Z,99.90
2022-10-01T17:37:39.181Z,99.90
2022-10-01T17:40:07.550Z,99.90
2022-10-01T17:42:35.541Z,99.90
2022-10-01T17:45:04.392Z,99.90
2022-10-01T17:47:31.409Z,99.90
2022-10-01T17:49:58.143Z,99.90
2022-10-01T17:52:24.993Z,99.90
2022-10-01T17:54:51.616Z,99.90
2022-10-01T17:57:18.286Z,99.90
2022-10-01T17:59:44.913Z,99.90
2022-10-01T18:02:36.539Z,99.90
2022-10-01T18:04:59.585Z,99.90
2022-10-01T18:07:27.039Z,99.90
2022-10-01T18:09:53.913Z,99.90
2022-10-01T18:12:20.934Z,99.90
2022-10-01T18:14:49.659Z,99.90
2022-10-01T18:17:16.261Z,99.90
2022-10-01T18:19:58.117Z,99.90
2022-10-01T18:22:24.951Z,99.90
2022-10-01T18:24:51.533Z,99.90
2022-10-01T18:27:18.297Z,99.90
2022-10-01T18:29:45.066Z,99.90
2022-10-01T18:32:22.021Z,99.90
2022-10-01T18:34:58.811Z,99.90
2022-10-01T18:37:40.458Z,99.90
2022-10-01T18:40:12.416Z,99.90
2022-10-01T18:43:20.400Z,99.90
2022-10-01T18:46:20.883Z,99.90
2022-10-01T18:49:04.577Z,99.90
2022-10-01T18:51:55.498Z,99.90
2022-10-01T18:54:46.265Z,99.90
2022-10-01T18:57:41.386Z,99.90
2022-10-01T19:00:14.261Z,99.90
2022-10-01T19:02:55.386Z,99.90
2022-10-01T19:05:48.521Z,99.90
2022-10-01T19:08:24.614Z,99.90
2022-10-01T19:11:06.680Z,99.90
2022-10-01T19:13:54.064Z,99.90
2022-10-01T19:16:47.637Z,99.90
2022-10-01T19:19:33.002Z,99.90
2022-10-01T19:22:02.149Z,99.90
2022-10-01T19:25:00.782Z,99.90
2022-10-01T19:27:36.452Z,99.90
2022-10-01T19:30:10.795Z,99.90
2022-10-01T19:33:08.119Z,99.90
2022-10-01T19:35:39.453Z,99.90
2022-10-01T19:38:24.981Z,99.90
2022-10-01T19:40:59.191Z,99.90
2022-10-01T19:43:47.751Z,99.90
2022-10-01T19:46:32.134Z,99.90
2022-10-01T19:49:10.385Z,99.90
2022-10-01T19:51:51.442Z,99.90
2022-10-01T19:54:25.033Z,99.90
2022-10-01T19:57:01.204Z,99.90
2022-10-01T19:59:29.165Z,99.90
2022-10-01T20:02:03.576Z,99.90
2022-10-01T20:04:40.349Z,99.90
2022-10-01T20:07:45.728Z,99.90
2022-10-01T20:10:32.677Z,99.90
2022-10-01T20:13:31.340Z,99.90
2022-10-01T20:16:22.698Z,99.90
2022-10-01T20:18:57.048Z,99.90
2022-10-01T20:21:40.384Z,99.90
2022-10-01T20:24:29.807Z,99.90
2022-10-01T20:27:18.936Z,99.90
2022-10-01T20:30:06.876Z,99.90
2022-10-01T20:32:57.233Z,99.90
2022-10-01T20:35:59.250Z,99.90
2022-10-01T20:38:49.670Z,99.90
2022-10-01T20:41:20.229Z,99.90
2022-10-01T20:43:59.020Z,99.90
2022-10-01T20:46:45.850Z,99.90
2022-10-01T20:49:18.020Z,99.90
2022-10-01T20:51:55.620Z,99.90
2022-10-01T20:54:31.469Z,99.90
2022-10-01T20:57:38.534Z,99.90
2022-10-01T21:00:17.430Z,99.90
2022-10-01T21:02:50.932Z,99.90
2022-10-01T21:05:24.258Z,99.90
2022-10-01T21:08:04.269Z,99.90
2022-10-01T21:10:37.510Z,99.90
2022-10-01T21:13:27.035Z,99.90
2022-10-01T21:16:00.871Z,99.90
2022-10-01T21:18:53.240Z,99.90
2022-10-01T21:21:41.200Z,99.90
2022-10-01T21:24:44.253Z,99.90
2022-10-01T21:27:19.750Z,99.90
2022-10-01T21:30:11.732Z,99.90
2022-10-01T21:33:00.102Z,99.90
2022-10-01T21:35:47.330Z,99.90
2022-10-01T21:38:22.664Z,99.90
2022-10-01T21:41:06.447Z,99.90
2022-10-01T21:44:10.902Z,99.90
2022-10-01T21:46:58.807Z,99.90
2022-10-01T21:49:33.120Z,99.90
2022-10-01T21:52:28.569Z,99.90
2022-10-01T21:55:03.052Z,99.90
2022-10-01T21:57:48.234Z,99.90
2022-10-01T22:00:24.786Z,99.90
2022-10-01T22:02:54.065Z,99.90
2022-10-01T22:05:33.240Z,99.90
2022-10-01T22:08:21.014Z,99.90
2022-10-01T22:10:51.484Z,99.90
2022-10-01T22:13:28.494Z,99.90
2022-10-01T22:16:09.944Z,99.90
2022-10-01T22:18:59.845Z,99.90
2022-10-01T22:21:41.362Z,99.90
2022-10-01T22:24:16.282Z,99.90
2022-10-01T22:26:48.737Z,99.90
2022-10-01T22:29:21.169Z,99.90
2022-10-01T22:31:51.267Z,99.90
2022-10-01T22:34:23.691Z,99.90
2022-10-01T22:36:59.701Z,99.90
2022-10-01T22:39:34.218Z,99.90
2022-10-01T22:42:33.333Z,99.90
2022-10-01T22:45:11.694Z,99.90
2022-10-01T22:47:49.290Z,99.90
2022-10-01T22:50:40.806Z,99.90
2022-10-01T22:53:34.789Z,99.90
2022-10-01T22:56:01.416Z,99.90
2022-10-01T22:58:34.890Z,99.90
2022-10-01T23:01:14.014Z,99.90
2022-10-01T23:04:16.535Z,99.90
2022-10-01T23:07:10.726Z,99.90
2022-10-01T23:09:55.572Z,99.90
2022-10-01T23:12:41.024Z,99.90
2022-10-01T23:15:20.144Z,99.90
2022-10-01T23:18:01.462Z,99.90
2022-10-01T23:20:33.776Z,99.90
2022-10-01T23:23:31.453Z,99.90
2022-10-01T23:26:30.982Z,99.90
2022-10-01T23:29:10.246Z,99.90
2022-10-01T23:31:49.058Z,99.90
2022-10-01T23:34:21.457Z,99.90
2022-10-01T23:36:56.302Z,99.90
2022-10-01T23:39:38.817Z,99.90
2022-10-01T23:42:27.092Z,99.90
2022-10-01T23:45:02.130Z,99.90
2022-10-01T23:48:06.431Z,99.90
2022-10-01T23:50:51.732Z,99.90
2022-10-01T23:53:37.302Z,99.90
2022-10-01T23:56:30.319Z,99.90
2022-10-01T23:59:31.520Z,99.90
